Wetterdaten: Woche 30.04.18 - 06.05.18 (KW18)
Datum Zeit Temp. Aussen Temp. o. S. +5cm Feuchte Auss BlattFeu 1 Luftdruck Regen Sonnenschein Regendauer Solar Windben Empfang
30.04.2018 00:00 14,6 C 13,5 C 12,4 C 89 % 14 lf 997,5 hPa 2,6 l/m 0,00 h 0,90 h 0 W/m 23,2 km/h (4 Bft) 96,54 %
30.04.2018 01:00 13,7 C 12,2 C 11,5 C 92 % 15 lf 997,4 hPa 8,0 l/m 0,00 h 1,00 h 0 W/m 22,0 km/h (4 Bft) 96,73 %
30.04.2018 02:00 12,7 C 11,7 C 11,1 C 95 % 15 lf 995,9 hPa 0,4 l/m 0,00 h 0,67 h 0 W/m 19,0 km/h (3 Bft) 98,35 %
30.04.2018 03:00 12,4 C 11,7 C 11,1 C 96 % 15 lf 995,6 hPa 1,0 l/m 0,00 h 0,50 h 0 W/m 10,6 km/h (2 Bft) 93,81 %
30.04.2018 04:00 12,2 C 11,7 C 11,1 C 97 % 15 lf 995,8 hPa 0,0 l/m 0,00 h 0,00 h 0 W/m 8,2 km/h (2 Bft) 98,08 %
30.04.2018 05:00 11,9 C 11,1 C 10,6 C 97 % 15 lf 995,6 hPa 0,0 l/m 0,00 h 0,03 h 0 W/m 8,9 km/h (2 Bft) 97,88 %
30.04.2018 06:00 11,7 C 11,1 C 10,6 C 97 % 15 lf 996,2 hPa 0,2 l/m 0,00 h 0,23 h 6 W/m 13,2 km/h (3 Bft) 95,48 %
30.04.2018 07:00 11,8 C 11,2 C 10,6 C 98 % 15 lf 996,6 hPa 0,0 l/m 0,00 h 0,00 h 20 W/m 23,0 km/h (4 Bft) 96,00 %
30.04.2018 08:00 11,8 C 11,2 C 10,6 C 97 % 15 lf 997,2 hPa 0,0 l/m 0,00 h 0,53 h 56 W/m 20,2 km/h (4 Bft) 98,15 %
30.04.2018 09:00 11,9 C 11,2 C 10,9 C 96 % 15 lf 997,7 hPa 0,0 l/m 0,00 h 0,60 h 82 W/m 16,5 km/h (3 Bft) 94,61 %
30.04.2018 10:00 11,9 C 11,7 C 11,1 C 94 % 5 lf 997,9 hPa 0,0 l/m 0,00 h 0,00 h 111 W/m 15,9 km/h (3 Bft) 96,15 %
30.04.2018 11:00 12,4 C 12,1 C 11,8 C 89 % 0 lf 998,3 hPa 0,0 l/m 0,00 h 0,07 h 227 W/m 22,0 km/h (4 Bft) 96,08 %
30.04.2018 12:00 13,4 C 14,2 C 13,9 C 80 % 0 lf 998,3 hPa 0,0 l/m 0,30 h 0,03 h 258 W/m 32,3 km/h (5 Bft) 98,05 %
30.04.2018 13:00 14,1 C 16,7 C 15,9 C 75 % 0 lf 998,1 hPa 0,0 l/m 0,57 h 0,00 h 489 W/m 34,1 km/h (5 Bft) 93,63 %
30.04.2018 14:00 15,4 C 18,2 C 16,3 C 72 % 1 lf 998,4 hPa 0,0 l/m 0,70 h 0,07 h 673 W/m 39,1 km/h (6 Bft) 97,76 %
30.04.2018 15:00 13,6 C 13,6 C 12,7 C 76 % 9 lf 999,1 hPa 0,8 l/m 0,47 h 0,13 h 414 W/m 38,8 km/h (5 Bft) 98,29 %
30.04.2018 16:00 12,8 C 13,7 C 13,6 C 71 % 0 lf 999,5 hPa 0,0 l/m 0,40 h 0,00 h 317 W/m 36,2 km/h (5 Bft) 92,95 %
30.04.2018 17:00 13,5 C 14,3 C 14,0 C 65 % 0 lf 999,3 hPa 0,0 l/m 0,63 h 0,00 h 297 W/m 39,3 km/h (6 Bft) 98,27 %
30.04.2018 18:00 12,9 C 12,1 C 11,7 C 67 % 4 lf 999,2 hPa 0,0 l/m 0,07 h 0,23 h 116 W/m 36,9 km/h (5 Bft) 97,43 %
30.04.2018 19:00 11,2 C 10,8 C 9,7 C 71 % 0 lf 999,1 hPa 0,0 l/m 0,00 h 0,13 h 40 W/m 38,9 km/h (6 Bft) 93,86 %
30.04.2018 20:00 10,3 C 9,5 C 8,3 C 71 % 1 lf 999,1 hPa 0,0 l/m 0,00 h 0,63 h 8 W/m 46,0 km/h (6 Bft) 97,50 %
30.04.2018 21:00 8,4 C 6,6 C 5,7 C 81 % 14 lf 999,6 hPa 0,2 l/m 0,00 h 1,00 h 0 W/m 37,8 km/h (5 Bft) 97,87 %
30.04.2018 22:00 7,0 C 5,6 C 5,0 C 86 % 15 lf 1000,0 hPa 0,0 l/m 0,00 h 1,00 h 0 W/m 40,9 km/h (6 Bft) 94,56 %
30.04.2018 23:00 6,5 C 5,6 C 4,9 C 90 % 15 lf 1000,6 hPa 0,0 l/m 0,00 h 0,73 h 0 W/m 35,4 km/h (5 Bft) 96,44 %
01.05.2018 00:00 6,3 C 5,1 C 4,4 C 91 % 15 lf 1001,2 hPa 0,0 l/m 0,00 h 1,00 h 0 W/m 34,9 km/h (5 Bft) 97,45 %
01.05.2018 01:00 6,1 C 5,0 C 4,4 C 92 % 15 lf 1002,1 hPa 0,0 l/m 0,00 h 1,00 h 0 W/m 39,8 km/h (6 Bft) 95,24 %
01.05.2018 02:00 5,8 C 5,0 C 4,4 C 93 % 15 lf 1002,7 hPa 0,2 l/m 0,00 h 1,00 h 0 W/m 41,4 km/h (6 Bft) 97,92 %
01.05.2018 03:00 5,6 C 4,9 C 4,3 C 94 % 15 lf 1003,3 hPa 0,2 l/m 0,00 h 1,00 h 0 W/m 37,5 km/h (5 Bft) 94,52 %
01.05.2018 04:00 5,4 C 4,6 C 3,9 C 94 % 15 lf 1004,1 hPa 0,0 l/m 0,00 h 0,80 h 0 W/m 40,9 km/h (6 Bft) 97,68 %
01.05.2018 05:00 5,5 C 4,8 C 3,9 C 93 % 15 lf 1004,7 hPa 0,0 l/m 0,00 h 1,00 h 0 W/m 40,9 km/h (6 Bft) 98,02 %
01.05.2018 06:00 5,7 C 5,4 C 4,0 C 92 % 14 lf 1005,3 hPa 0,0 l/m 0,00 h 1,00 h 10 W/m 38,6 km/h (5 Bft) 94,55 %
01.05.2018 07:00 6,0 C 6,2 C 4,3 C 88 % 0 lf 1006,4 hPa 0,0 l/m 0,00 h 0,13 h 53 W/m 42,5 km/h (6 Bft) 96,12 %
01.05.2018 08:00 6,4 C 7,2 C 5,2 C 86 % 0 lf 1007,5 hPa 0,0 l/m 0,20 h 0,00 h 147 W/m 42,7 km/h (6 Bft) 98,65 %
01.05.2018 09:00 7,3 C 9,3 C 7,5 C 81 % 0 lf 1008,3 hPa 0,0 l/m 0,90 h 0,00 h 291 W/m 41,3 km/h (6 Bft) 95,28 %
01.05.2018 10:00 9,0 C 13,1 C 11,4 C 74 % 0 lf 1009,1 hPa 0,0 l/m 1,00 h 0,00 h 524 W/m 44,1 km/h (6 Bft) 95,31 %
01.05.2018 11:00 10,1 C 12,3 C 11,6 C 69 % 0 lf 1009,6 hPa 0,0 l/m 0,43 h 0,00 h 369 W/m 40,1 km/h (6 Bft) 97,51 %
01.05.2018 12:00 10,6 C 12,6 C 12,0 C 68 % 0 lf 1010,0 hPa 0,0 l/m 0,37 h 0,00 h 382 W/m 36,8 km/h (5 Bft) 96,92 %
01.05.2018 13:00 11,8 C 14,7 C 13,4 C 64 % 0 lf 1010,5 hPa 0,0 l/m 0,97 h 0,00 h 505 W/m 35,4 km/h (5 Bft) 95,61 %
01.05.2018 14:00 13,2 C 17,7 C 15,5 C 56 % 0 lf 1010,8 hPa 0,0 l/m 1,00 h 0,00 h 710 W/m 31,9 km/h (5 Bft) 95,55 %
01.05.2018 15:00 14,6 C 19,9 C 20,9 C 52 % 0 lf 1011,1 hPa 0,0 l/m 1,00 h 0,00 h 812 W/m 29,2 km/h (5 Bft) 98,38 %
01.05.2018 16:00 14,8 C 16,7 C 17,8 C 48 % 0 lf 1011,3 hPa 0,0 l/m 1,00 h 0,00 h 640 W/m 29,0 km/h (5 Bft) 94,09 %
01.05.2018 17:00 15,0 C 15,5 C 14,6 C 47 % 0 lf 1011,4 hPa 0,0 l/m 0,97 h 0,00 h 496 W/m 21,7 km/h (4 Bft) 97,70 %
01.05.2018 18:00 14,9 C 14,9 C 13,5 C 48 % 0 lf 1011,4 hPa 0,0 l/m 0,70 h 0,00 h 272 W/m 16,3 km/h (3 Bft) 96,45 %
01.05.2018 19:00 13,4 C 12,8 C 12,1 C 55 % 0 lf 1011,4 hPa 0,0 l/m 0,17 h 0,00 h 69 W/m 8,9 km/h (2 Bft) 95,72 %
01.05.2018 20:00 12,6 C 11,9 C 10,9 C 62 % 0 lf 1011,8 hPa 0,0 l/m 0,00 h 0,00 h 17 W/m 12,2 km/h (2 Bft) 97,65 %
01.05.2018 21:00 11,8 C 10,9 C 9,7 C 65 % 0 lf 1012,1 hPa 0,0 l/m 0,00 h 0,00 h 0 W/m 9,2 km/h (2 Bft) 95,59 %
01.05.2018 22:00 10,9 C 9,3 C 7,3 C 69 % 0 lf 1012,4 hPa 0,0 l/m 0,00 h 0,00 h 0 W/m 7,2 km/h (2 Bft) 96,02 %
01.05.2018 23:00 9,4 C 7,7 C 5,7 C 75 % 0 lf 1012,5 hPa 0,0 l/m 0,00 h 0,00 h 0 W/m 5,5 km/h (1 Bft) 96,01 %
02.05.2018 00:00 8,0 C 6,7 C 4,9 C 80 % 0 lf 1012,5 hPa 0,0 l/m 0,00 h 0,00 h 0 W/m 6,5 km/h (2 Bft) 97,40 %
02.05.2018 01:00 7,1 C 6,2 C 4,5 C 83 % 0 lf 1012,5 hPa 0,0 l/m 0,00 h 0,00 h 0 W/m 8,3 km/h (2 Bft) 95,44 %
02.05.2018 02:00 6,7 C 5,9 C 4,0 C 83 % 0 lf 1012,3 hPa 0,0 l/m 0,00 h 0,00 h 0 W/m 6,9 km/h (2 Bft) 95,80 %
02.05.2018 03:00 6,0 C 5,1 C 3,5 C 84 % 0 lf 1012,2 hPa 0,0 l/m 0,00 h 0,00 h 0 W/m 8,1 km/h (2 Bft) 97,22 %
02.05.2018 04:00 5,1 C 3,9 C 2,5 C 86 % 0 lf 1012,2 hPa 0,0 l/m 0,00 h 0,00 h 0 W/m 4,1 km/h (1 Bft) 96,58 %
02.05.2018 05:00 4,3 C 3,3 C 2,2 C 88 % 0 lf 1011,9 hPa 0,0 l/m 0,00 h 0,00 h 0 W/m 7,0 km/h (2 Bft) 92,16 %
02.05.2018 06:00 3,5 C 3,2 C 2,2 C 91 % 0 lf 1012,1 hPa 0,0 l/m 0,27 h 0,00 h 30 W/m 10,6 km/h (2 Bft) 98,98 %
02.05.2018 07:00 3,9 C 4,5 C 3,2 C 92 % 0 lf 1012,3 hPa 0,0 l/m 1,00 h 0,00 h 168 W/m 11,6 km/h (2 Bft) 95,76 %
02.05.2018 08:00 5,9 C 9,6 C 5,4 C 90 % 0 lf 1012,5 hPa 0,0 l/m 1,00 h 0,00 h 343 W/m 13,8 km/h (3 Bft) 95,72 %
02.05.2018 09:00 10,3 C 17,0 C 10,1 C 76 % 0 lf 1012,3 hPa 0,0 l/m 1,00 h 0,00 h 512 W/m 18,2 km/h (3 Bft) 98,84 %
02.05.2018 10:00 13,6 C 19,9 C 19,6 C 61 % 0 lf 1011,9 hPa 0,0 l/m 1,00 h 0,00 h 661 W/m 21,1 km/h (4 Bft) 95,06 %
02.05.2018 11:00 14,9 C 22,3 C 19,2 C 55 % 0 lf 1011,5 hPa 0,0 l/m 0,97 h 0,00 h 768 W/m 24,7 km/h (4 Bft) 95,84 %
02.05.2018 12:00 15,5 C 19,9 C 20,2 C 56 % 0 lf 1011,1 hPa 0,0 l/m 0,60 h 0,00 h 644 W/m 22,7 km/h (4 Bft) 97,20 %
02.05.2018 13:00 16,5 C 20,7 C 17,8 C 54 % 0 lf 1010,5 hPa 0,0 l/m 0,57 h 0,00 h 607 W/m 21,8 km/h (4 Bft) 95,88 %
02.05.2018 14:00 17,6 C 23,0 C 18,8 C 51 % 0 lf 1010,0 hPa 0,0 l/m 1,00 h 0,00 h 836 W/m 24,7 km/h (4 Bft) 97,83 %
02.05.2018 15:00 18,0 C 20,9 C 22,2 C 51 % 0 lf 1009,1 hPa 0,0 l/m 0,67 h 0,00 h 528 W/m 22,4 km/h (4 Bft) 95,66 %
02.05.2018 16:00 18,7 C 20,5 C 22,5 C 51 % 0 lf 1008,3 hPa 0,0 l/m 1,00 h 0,00 h 638 W/m 22,3 km/h (4 Bft) 96,82 %
02.05.2018 17:00 19,3 C 19,6 C 19,3 C 49 % 0 lf 1008,0 hPa 0,0 l/m 0,77 h 0,00 h 418 W/m 23,6 km/h (4 Bft) 96,87 %
02.05.2018 18:00 18,8 C 18,7 C 17,6 C 50 % 0 lf 1007,9 hPa 0,0 l/m 0,57 h 0,00 h 219 W/m 21,2 km/h (4 Bft) 95,26 %
02.05.2018 19:00 18,4 C 18,3 C 18,1 C 52 % 0 lf 1008,0 hPa 0,0 l/m 1,00 h 0,00 h 222 W/m 26,2 km/h (4 Bft) 95,84 %
02.05.2018 20:00 17,2 C 16,2 C 14,9 C 55 % 0 lf 1008,6 hPa 0,0 l/m 0,70 h 0,00 h 52 W/m 17,2 km/h (3 Bft) 96,74 %
02.05.2018 21:00 15,8 C 14,3 C 12,3 C 60 % 0 lf 1009,2 hPa 0,0 l/m 0,00 h 0,00 h 5 W/m 8,9 km/h (2 Bft) 97,40 %
02.05.2018 22:00 14,3 C 12,9 C 11,2 C 62 % 0 lf 1009,6 hPa 0,0 l/m 0,00 h 0,00 h 0 W/m 8,7 km/h (2 Bft) 94,52 %
02.05.2018 23:00 13,6 C 12,9 C 11,7 C 65 % 0 lf 1009,9 hPa 0,0 l/m 0,00 h 0,00 h 0 W/m 9,4 km/h (2 Bft) 98,40 %
03.05.2018 00:00 13,4 C 12,8 C 11,7 C 66 % 0 lf 1010,5 hPa 0,0 l/m 0,00 h 0,00 h 0 W/m 9,1 km/h (2 Bft) 96,80 %
03.05.2018 01:00 13,1 C 12,4 C 11,3 C 69 % 0 lf 1010,9 hPa 0,0 l/m 0,00 h 0,00 h 0 W/m 14,6 km/h (3 Bft) 96,23 %
03.05.2018 02:00 12,3 C 11,7 C 10,7 C 81 % 0 lf 1011,0 hPa 0,0 l/m 0,00 h 0,00 h 0 W/m 16,2 km/h (3 Bft) 96,30 %
03.05.2018 03:00 11,7 C 10,9 C 9,9 C 84 % 0 lf 1011,2 hPa 0,0 l/m 0,00 h 0,00 h 0 W/m 16,0 km/h (3 Bft) 96,66 %
03.05.2018 04:00 11,0 C 10,1 C 8,9 C 86 % 0 lf 1012,0 hPa 0,0 l/m 0,00 h 0,00 h 0 W/m 15,1 km/h (3 Bft) 95,50 %
03.05.2018 05:00 9,8 C 8,4 C 7,0 C 85 % 0 lf 1012,9 hPa 0,0 l/m 0,00 h 0,00 h 0 W/m 10,0 km/h (2 Bft) 97,19 %
03.05.2018 06:00 8,6 C 7,3 C 5,9 C 84 % 0 lf 1013,8 hPa 0,0 l/m 0,00 h 0,00 h 21 W/m 4,2 km/h (1 Bft) 94,47 %
03.05.2018 07:00 8,3 C 9,3 C 7,8 C 88 % 0 lf 1014,6 hPa 0,0 l/m 0,60 h 0,00 h 116 W/m 6,7 km/h (2 Bft) 97,71 %
03.05.2018 08:00 9,4 C 13,3 C 9,6 C 87 % 0 lf 1015,4 hPa 0,0 l/m 1,00 h 0,00 h 261 W/m 12,0 km/h (2 Bft) 96,11 %
03.05.2018 09:00 11,0 C 19,6 C 11,7 C 80 % 0 lf 1016,0 hPa 0,0 l/m 1,00 h 0,00 h 414 W/m 13,4 km/h (3 Bft) 97,04 %
03.05.2018 10:00 12,9 C 24,3 C 18,9 C 72 % 0 lf 1016,6 hPa 0,0 l/m 1,00 h 0,00 h 633 W/m 13,6 km/h (3 Bft) 96,94 %
03.05.2018 11:00 14,5 C 25,2 C 19,8 C 59 % 0 lf 1017,1 hPa 0,0 l/m 1,00 h 0,00 h 759 W/m 15,5 km/h (3 Bft) 94,66 %
03.05.2018 12:00 15,8 C 25,5 C 20,4 C 53 % 0 lf 1017,2 hPa 0,0 l/m 0,90 h 0,00 h 696 W/m 17,9 km/h (3 Bft) 98,31 %
03.05.2018 13:00 15,9 C 23,2 C 16,9 C 53 % 0 lf 1017,2 hPa 0,0 l/m 0,87 h 0,00 h 708 W/m 17,5 km/h (3 Bft) 96,89 %
03.05.2018 14:00 16,7 C 23,3 C 18,6 C 52 % 0 lf 1017,3 hPa 0,0 l/m 0,87 h 0,00 h 638 W/m 14,6 km/h (3 Bft) 94,86 %
03.05.2018 15:00 17,4 C 23,9 C 24,1 C 48 % 0 lf 1017,3 hPa 0,0 l/m 1,00 h 0,00 h 773 W/m 16,4 km/h (3 Bft) 98,94 %
03.05.2018 16:00 18,0 C 21,1 C 22,0 C 47 % 0 lf 1017,2 hPa 0,0 l/m 0,80 h 0,00 h 595 W/m 17,1 km/h (3 Bft) 95,58 %
03.05.2018 17:00 17,6 C 19,0 C 18,3 C 48 % 0 lf 1017,2 hPa 0,0 l/m 1,00 h 0,00 h 459 W/m 18,0 km/h (3 Bft) 95,93 %
03.05.2018 18:00 17,1 C 17,4 C 16,3 C 49 % 0 lf 1017,4 hPa 0,0 l/m 0,93 h 0,00 h 272 W/m 17,6 km/h (3 Bft) 97,54 %
03.05.2018 19:00 16,5 C 16,3 C 15,1 C 49 % 0 lf 1017,7 hPa 0,0 l/m 1,00 h 0,00 h 139 W/m 14,5 km/h (3 Bft) 96,56 %
03.05.2018 20:00 15,4 C 13,8 C 12,5 C 52 % 0 lf 1018,5 hPa 0,0 l/m 0,40 h 0,00 h 32 W/m 10,3 km/h (2 Bft) 96,06 %
03.05.2018 21:00 13,6 C 11,3 C 9,7 C 60 % 0 lf 1019,3 hPa 0,0 l/m 0,00 h 0,00 h 5 W/m 7,2 km/h (2 Bft) 95,74 %
03.05.2018 22:00 12,1 C 10,3 C 8,9 C 66 % 0 lf 1019,8 hPa 0,0 l/m 0,00 h 0,00 h 0 W/m 8,1 km/h (2 Bft) 98,51 %
03.05.2018 23:00 10,9 C 9,2 C 7,9 C 69 % 0 lf 1020,0 hPa 0,0 l/m 0,00 h 0,00 h 0 W/m 8,2 km/h (2 Bft) 93,95 %
04.05.2018 00:00 9,8 C 7,5 C 6,2 C 72 % 0 lf 1020,2 hPa 0,0 l/m 0,00 h 0,00 h 0 W/m 4,4 km/h (1 Bft) 96,55 %
04.05.2018 01:00 8,5 C 6,2 C 5,0 C 75 % 0 lf 1020,4 hPa 0,0 l/m 0,00 h 0,00 h 0 W/m 3,9 km/h (1 Bft) 97,93 %
04.05.2018 02:00 7,4 C 5,5 C 4,3 C 79 % 0 lf 1020,3 hPa 0,0 l/m 0,00 h 0,00 h 0 W/m 3,2 km/h (1 Bft) 94,60 %
04.05.2018 03:00 6,7 C 4,7 C 3,8 C 81 % 0 lf 1020,5 hPa 0,0 l/m 0,00 h 0,00 h 0 W/m 2,3 km/h (1 Bft) 96,72 %
04.05.2018 04:00 6,0 C 4,1 C 3,3 C 83 % 1 lf 1020,7 hPa 0,0 l/m 0,00 h 0,00 h 0 W/m 0,6 km/h (0 Bft) 95,91 %
04.05.2018 05:00 5,4 C 3,6 C 2,8 C 85 % 2 lf 1020,5 hPa 0,0 l/m 0,00 h 0,00 h 4 W/m 0,1 km/h (0 Bft) 94,63 %
04.05.2018 06:00 4,8 C 3,8 C 3,0 C 87 % 3 lf 1020,7 hPa 0,0 l/m 0,33 h 0,00 h 34 W/m 0,9 km/h (0 Bft) 97,41 %
04.05.2018 07:00 5,3 C 6,2 C 4,8 C 91 % 1 lf 1021,3 hPa 0,0 l/m 1,00 h 0,00 h 164 W/m 4,3 km/h (1 Bft) 95,95 %
04.05.2018 08:00 7,7 C 13,0 C 7,8 C 94 % 0 lf 1021,5 hPa 0,0 l/m 1,00 h 0,00 h 338 W/m 9,9 km/h (2 Bft) 97,22 %
04.05.2018 09:00 11,5 C 23,7 C 12,5 C 83 % 0 lf 1021,6 hPa 0,0 l/m 1,00 h 0,00 h 506 W/m 10,5 km/h (2 Bft) 95,81 %
04.05.2018 10:00 14,9 C 26,9 C 21,6 C 68 % 0 lf 1021,6 hPa 0,0 l/m 1,00 h 0,00 h 648 W/m 13,6 km/h (3 Bft) 96,51 %
04.05.2018 11:00 17,6 C 26,6 C 22,7 C 54 % 0 lf 1021,4 hPa 0,0 l/m 1,00 h 0,00 h 770 W/m 18,5 km/h (3 Bft) 98,79 %
04.05.2018 12:00 19,1 C 27,5 C 23,5 C 47 % 0 lf 1021,1 hPa 0,0 l/m 1,00 h 0,00 h 802 W/m 22,2 km/h (4 Bft) 93,74 %
04.05.2018 13:00 19,7 C 26,7 C 19,5 C 45 % 0 lf 1021,0 hPa 0,0 l/m 1,00 h 0,00 h 861 W/m 23,3 km/h (4 Bft) 97,92 %
04.05.2018 14:00 19,9 C 26,3 C 20,7 C 44 % 0 lf 1021,0 hPa 0,0 l/m 1,00 h 0,00 h 826 W/m 24,1 km/h (4 Bft) 96,88 %
04.05.2018 15:00 20,6 C 25,5 C 26,5 C 43 % 0 lf 1020,9 hPa 0,0 l/m 1,00 h 0,00 h 753 W/m 25,2 km/h (4 Bft) 95,57 %
04.05.2018 16:00 20,7 C 22,5 C 23,5 C 44 % 0 lf 1020,7 hPa 0,0 l/m 1,00 h 0,00 h 635 W/m 26,6 km/h (4 Bft) 98,29 %
04.05.2018 17:00 21,0 C 21,6 C 20,2 C 45 % 0 lf 1020,6 hPa 0,0 l/m 1,00 h 0,00 h 487 W/m 25,1 km/h (4 Bft) 94,52 %
04.05.2018 18:00 21,2 C 21,2 C 19,2 C 44 % 0 lf 1020,7 hPa 0,0 l/m 1,00 h 0,00 h 321 W/m 23,8 km/h (4 Bft) 97,61 %
04.05.2018 19:00 20,1 C 19,5 C 18,2 C 47 % 0 lf 1020,9 hPa 0,0 l/m 1,00 h 0,00 h 146 W/m 23,1 km/h (4 Bft) 95,24 %
04.05.2018 20:00 17,9 C 16,7 C 15,4 C 53 % 0 lf 1021,2 hPa 0,0 l/m 0,03 h 0,00 h 29 W/m 17,2 km/h (3 Bft) 97,22 %
04.05.2018 21:00 16,0 C 14,6 C 13,4 C 59 % 0 lf 1021,9 hPa 0,0 l/m 0,00 h 0,00 h 5 W/m 12,4 km/h (3 Bft) 96,80 %
04.05.2018 22:00 14,6 C 12,7 C 11,0 C 64 % 0 lf 1022,4 hPa 0,0 l/m 0,00 h 0,00 h 0 W/m 7,8 km/h (2 Bft) 95,30 %
04.05.2018 23:00 13,1 C 10,9 C 8,7 C 68 % 0 lf 1022,6 hPa 0,0 l/m 0,00 h 0,00 h 0 W/m 6,7 km/h (2 Bft) 97,83 %
05.05.2018 00:00 11,9 C 10,1 C 8,0 C 71 % 0 lf 1022,8 hPa 0,0 l/m 0,00 h 0,00 h 0 W/m 7,2 km/h (2 Bft) 96,45 %
05.05.2018 01:00 11,0 C 10,0 C 7,7 C 74 % 0 lf 1023,0 hPa 0,0 l/m 0,00 h 0,00 h 0 W/m 9,4 km/h (2 Bft) 94,15 %
05.05.2018 02:00 11,1 C 10,8 C 8,4 C 74 % 0 lf 1023,0 hPa 0,0 l/m 0,00 h 0,00 h 0 W/m 13,2 km/h (3 Bft) 98,50 %
05.05.2018 03:00 11,1 C 10,4 C 8,9 C 73 % 0 lf 1023,1 hPa 0,0 l/m 0,00 h 0,00 h 0 W/m 15,3 km/h (3 Bft) 95,95 %
05.05.2018 04:00 10,6 C 9,4 C 7,8 C 74 % 0 lf 1023,1 hPa 0,0 l/m 0,00 h 0,00 h 0 W/m 12,4 km/h (3 Bft) 96,11 %
05.05.2018 05:00 10,0 C 9,1 C 7,4 C 76 % 0 lf 1023,1 hPa 0,0 l/m 0,00 h 0,00 h 4 W/m 10,9 km/h (2 Bft) 97,44 %
05.05.2018 06:00 9,4 C 8,9 C 7,2 C 79 % 0 lf 1023,3 hPa 0,0 l/m 0,33 h 0,00 h 35 W/m 13,0 km/h (3 Bft) 95,66 %
05.05.2018 07:00 9,8 C 10,2 C 8,5 C 80 % 0 lf 1023,6 hPa 0,0 l/m 1,00 h 0,00 h 182 W/m 16,5 km/h (3 Bft) 95,70 %
05.05.2018 08:00 11,6 C 16,2 C 10,5 C 76 % 0 lf 1023,4 hPa 0,0 l/m 1,00 h 0,00 h 359 W/m 18,0 km/h (3 Bft) 96,41 %
05.05.2018 09:00 15,6 C 25,3 C 15,6 C 62 % 0 lf 1023,5 hPa 0,0 l/m 1,00 h 0,00 h 527 W/m 19,9 km/h (4 Bft) 97,84 %
05.05.2018 10:00 18,3 C 27,5 C 24,4 C 54 % 0 lf 1023,7 hPa 0,0 l/m 1,00 h 0,00 h 673 W/m 22,8 km/h (4 Bft) 96,34 %
05.05.2018 11:00 19,8 C 27,0 C 24,7 C 48 % 0 lf 1023,6 hPa 0,0 l/m 1,00 h 0,00 h 759 W/m 29,8 km/h (5 Bft) 95,82 %
05.05.2018 12:00 21,1 C 26,9 C 25,6 C 45 % 0 lf 1023,4 hPa 0,0 l/m 0,80 h 0,00 h 747 W/m 31,6 km/h (5 Bft) 98,93 %
05.05.2018 13:00 22,3 C 28,9 C 21,8 C 45 % 0 lf 1023,0 hPa 0,0 l/m 1,00 h 0,00 h 875 W/m 26,7 km/h (4 Bft) 95,72 %
05.05.2018 14:00 23,2 C 28,3 C 23,4 C 44 % 0 lf 1022,7 hPa 0,0 l/m 1,00 h 0,00 h 844 W/m 26,9 km/h (4 Bft) 96,99 %
05.05.2018 15:00 23,9 C 28,1 C 30,5 C 43 % 0 lf 1022,2 hPa 0,0 l/m 1,00 h 0,00 h 770 W/m 28,8 km/h (4 Bft) 97,87 %
05.05.2018 16:00 24,5 C 25,8 C 28,4 C 41 % 0 lf 1021,7 hPa 0,0 l/m 1,00 h 0,00 h 655 W/m 24,8 km/h (4 Bft) 96,01 %
05.05.2018 17:00 24,8 C 24,4 C 23,7 C 39 % 0 lf 1021,2 hPa 0,0 l/m 1,00 h 0,00 h 509 W/m 22,8 km/h (4 Bft) 96,30 %
05.05.2018 18:00 24,9 C 24,2 C 22,4 C 39 % 0 lf 1021,0 hPa 0,0 l/m 1,00 h 0,00 h 341 W/m 23,5 km/h (4 Bft) 98,31 %
05.05.2018 19:00 24,1 C 22,8 C 21,8 C 40 % 0 lf 1020,9 hPa 0,0 l/m 1,00 h 0,00 h 157 W/m 20,8 km/h (4 Bft) 95,74 %
05.05.2018 20:00 21,7 C 19,8 C 17,9 C 45 % 0 lf 1021,0 hPa 0,0 l/m 0,03 h 0,00 h 29 W/m 19,5 km/h (3 Bft) 97,79 %
05.05.2018 21:00 19,3 C 17,6 C 15,2 C 50 % 0 lf 1021,4 hPa 0,0 l/m 0,00 h 0,00 h 6 W/m 15,4 km/h (3 Bft) 96,15 %
05.05.2018 22:00 17,8 C 16,3 C 13,3 C 54 % 0 lf 1021,7 hPa 0,0 l/m 0,00 h 0,00 h 0 W/m 12,4 km/h (3 Bft) 97,50 %
05.05.2018 23:00 16,4 C 14,9 C 12,2 C 58 % 0 lf 1022,1 hPa 0,0 l/m 0,00 h 0,00 h 0 W/m 11,6 km/h (2 Bft) 96,67 %
06.05.2018 00:00 15,0 C 13,4 C 10,9 C 61 % 0 lf 1022,2 hPa 0,0 l/m 0,00 h 0,00 h 0 W/m 10,6 km/h (2 Bft) 96,49 %
06.05.2018 01:00 13,7 C 12,4 C 9,2 C 64 % 0 lf 1022,3 hPa 0,0 l/m 0,00 h 0,00 h 0 W/m 7,7 km/h (2 Bft) 98,01 %
06.05.2018 02:00 12,5 C 10,5 C 8,0 C 67 % 0 lf 1022,1 hPa 0,0 l/m 0,00 h 0,00 h 0 W/m 6,2 km/h (2 Bft) 95,57 %
06.05.2018 03:00 11,3 C 9,9 C 7,5 C 71 % 0 lf 1022,1 hPa 0,0 l/m 0,00 h 0,00 h 0 W/m 6,8 km/h (2 Bft) 97,33 %
06.05.2018 04:00 10,5 C 8,4 C 6,6 C 73 % 0 lf 1022,2 hPa 0,0 l/m 0,00 h 0,00 h 0 W/m 0,4 km/h (0 Bft) 95,99 %
06.05.2018 05:00 9,4 C 7,6 C 5,9 C 76 % 0 lf 1022,1 hPa 0,0 l/m 0,00 h 0,00 h 4 W/m 1,9 km/h (1 Bft) 96,12 %
06.05.2018 06:00 8,6 C 8,1 C 6,0 C 81 % 0 lf 1022,1 hPa 0,0 l/m 0,37 h 0,00 h 38 W/m 2,2 km/h (1 Bft) 96,45 %
06.05.2018 07:00 9,2 C 10,6 C 8,3 C 84 % 0 lf 1022,4 hPa 0,0 l/m 1,00 h 0,00 h 187 W/m 9,5 km/h (2 Bft) 98,37 %
06.05.2018 08:00 12,2 C 17,1 C 11,4 C 75 % 0 lf 1022,5 hPa 0,0 l/m 1,00 h 0,00 h 362 W/m 12,5 km/h (3 Bft) 95,95 %
06.05.2018 09:00 17,1 C 24,3 C 16,8 C 58 % 0 lf 1022,7 hPa 0,0 l/m 1,00 h 0,00 h 530 W/m 19,2 km/h (3 Bft) 97,54 %
06.05.2018 10:00 19,9 C 26,3 C 26,6 C 51 % 0 lf 1022,7 hPa 0,0 l/m 1,00 h 0,00 h 676 W/m 17,7 km/h (3 Bft) 96,86 %
06.05.2018 11:00 22,5 C 29,3 C 27,7 C 45 % 0 lf 1022,6 hPa 0,0 l/m 0,93 h 0,00 h 716 W/m 18,6 km/h (3 Bft) 96,44 %
06.05.2018 12:00 23,7 C 29,2 C 29,1 C 44 % 0 lf 1022,4 hPa 0,0 l/m 0,10 h 0,00 h 714 W/m 19,5 km/h (3 Bft) 100,00 %
Min-Datum _ 02.05.18 02.05.18 02.05.18 05.05.18 30.04.18 30.04.18 - - - - 01.05.18 04.05.18
_ Min-Zeit 06:36 06:24 04:16 17:40 10:26 03:20 - - - - 23:44 04:05
Minimum _ 3,4 C 2,8 C 2,2 C 38 % 0 lf 994,6 hPa - - - - 0,0 km/h (0 Bft) 4,39 %
Max-Datum _ 05.05.18 06.05.18 05.05.18 30.04.18 30.04.18 05.05.18 30.04.18 30.04.18 01.05.18 30.04.18 30.04.18 30.04.18
_ Max-Zeit 18:00 11:46 16:06 07:16 00:10 10:24 01:40 12:08 04:05 14:10 20:02 00:14
Maximum _ 25,1 C 33,3 C 32,8 C 98 % 15 lf 1023,8 hPa 8,0 l/m 0,07 h 0,08 h 1101 W/m 69,8 km/h
S-SW (8 Bft)
100,00 %
Durchschnitt _ 13,2 C 14,5 C 12,7 C 69 % 2 lf 1013,5 hPa #13,6 l/m #68:14 h #15:28 h 381 W/m 18,9 km/h (3 Bft) 96,51 %
© 2018 W. Hausmann